Time;durP1;ratioP1;P1;durP2;ratioP2;P2;SDS_P1;SDS_P2;PMS_P1;PMS_P2;Temp;Humidity;BMP_temperature;BMP_pressure;BME280_temperature;BME280_humidity;BME280_pressure;Samples;Min_cycle;Max_cycle;Signal;HPM_P1;HPM_P2
2023/07/13 00:00:49;;;;;;;2.93;1.70;;;;;;;20.02;64.78;100579.91;5027653;28;20256;-85
2023/07/13 00:03:17;;;;;;;3.53;2.47;;;;;;;20.02;64.94;100582.63;5030279;28;20199;-84
2023/07/13 00:05:45;;;;;;;3.57;2.33;;;;;;;20.00;64.95;100579.22;5034193;28;20214;-86
2023/07/13 00:08:12;;;;;;;3.27;2.20;;;;;;;20.03;65.09;100584.31;5034001;28;20204;-84
2023/07/13 00:10:41;;;;;;;4.83;2.10;;;;;;;20.02;64.85;100590.72;5031581;28;20220;-84
2023/07/13 00:13:08;;;;;;;4.43;2.00;;;;;;;20.03;64.81;100589.72;5032282;28;20203;-85
2023/07/13 00:15:35;;;;;;;3.40;1.90;;;;;;;20.03;64.80;100588.88;5030493;28;20210;-85
2023/07/13 00:18:03;;;;;;;3.33;2.10;;;;;;;20.01;64.85;100586.31;5031354;28;20209;-83
2023/07/13 00:20:30;;;;;;;2.23;1.70;;;;;;;20.01;64.75;100590.88;5032823;28;20218;-85
2023/07/13 00:22:58;;;;;;;45.20;5.17;;;;;;;20.02;64.86;100600.69;5029847;28;20198;-85
2023/07/13 00:25:27;;;;;;;3.90;1.83;;;;;;;20.02;64.94;100604.25;5033080;28;20221;-83
2023/07/13 00:27:54;;;;;;;3.90;1.90;;;;;;;20.02;64.97;100603.41;5033094;28;20200;-83
2023/07/13 00:30:21;;;;;;;4.53;2.37;;;;;;;20.00;64.75;100595.44;5027968;28;20225;-83
2023/07/13 00:32:48;;;;;;;2.60;1.90;;;;;;;20.00;64.82;100590.03;5029943;28;20197;-84
2023/07/13 00:35:18;;;;;;;4.43;2.33;;;;;;;19.98;64.86;100597.44;5030719;28;20761;-84
2023/07/13 00:37:46;;;;;;;3.17;2.13;;;;;;;19.98;64.79;100600.16;5024725;28;20206;-83
2023/07/13 00:40:19;;;;;;;3.67;2.00;;;;;;;19.97;64.62;100594.91;5037684;28;20223;-84
2023/07/13 00:42:46;;;;;;;3.07;2.00;;;;;;;19.96;64.72;100590.50;5025714;28;20699;-83
2023/07/13 00:45:52;;;;;;;2.00;1.80;;;;;;;19.94;64.60;100590.66;5032502;28;20207;-85
2023/07/13 00:48:22;;;;;;;3.23;2.00;;;;;;;19.93;64.65;100597.06;5004563;28;20211;-84
2023/07/13 00:50:54;;;;;;;4.17;1.80;;;;;;;19.91;64.68;100603.63;5026426;28;20222;-83
2023/07/13 00:53:21;;;;;;;3.37;2.03;;;;;;;19.89;64.51;100595.69;5036119;28;20218;-83
2023/07/13 00:55:48;;;;;;;4.17;2.00;;;;;;;19.87;64.93;100600.44;5022003;28;20199;-85
2023/07/13 00:58:15;;;;;;;3.97;2.33;;;;;;;19.85;64.81;100585.38;5030636;28;20886;-87
2023/07/13 01:00:42;;;;;;;2.93;2.20;;;;;;;19.83;64.85;100581.97;5033571;28;20229;-84
2023/07/13 01:03:09;;;;;;;3.20;2.10;;;;;;;19.79;64.73;100589.53;5032441;28;20215;-85
2023/07/13 01:05:39;;;;;;;4.30;2.27;;;;;;;19.76;64.83;100579.03;5027969;28;20298;-84
2023/07/13 01:08:07;;;;;;;4.10;2.00;;;;;;;19.74;64.66;100581.91;5032961;28;20200;-84
2023/07/13 01:10:38;;;;;;;2.80;2.20;;;;;;;19.70;64.43;100580.56;5032692;28;20718;-83
2023/07/13 01:13:05;;;;;;;5.37;2.10;;;;;;;19.67;64.11;100577.31;5028696;28;20203;-84
2023/07/13 01:15:40;;;;;;;2.17;1.70;;;;;;;19.63;63.80;100584.88;5031279;28;20215;-85
2023/07/13 01:18:10;;;;;;;3.30;1.97;;;;;;;19.59;63.73;100585.34;5029692;28;20196;-84
2023/07/13 01:20:37;;;;;;;4.63;2.10;;;;;;;19.53;63.69;100580.53;5022843;28;20290;-85
2023/07/13 01:23:09;;;;;;;2.37;1.80;;;;;;;19.49;63.86;100579.16;5030821;28;20225;-83
2023/07/13 01:25:37;;;;;;;5.13;1.97;;;;;;;19.45;63.71;100586.72;5026927;28;20208;-84
2023/07/13 01:28:05;;;;;;;4.00;2.40;;;;;;;19.40;63.51;100586.31;5031358;28;20206;-84
2023/07/13 01:30:32;;;;;;;2.20;1.67;;;;;;;19.36;63.53;100587.63;5032632;28;20932;-84
2023/07/13 01:32:58;;;;;;;4.30;1.63;;;;;;;19.33;63.90;100587.97;5029680;28;20206;-84
2023/07/13 01:35:27;;;;;;;5.20;1.80;;;;;;;19.29;63.99;100583.88;5032460;28;20657;-86
2023/07/13 01:37:54;;;;;;;4.77;1.87;;;;;;;19.26;64.05;100582.31;5024572;28;20259;-84
2023/07/13 01:40:22;;;;;;;3.67;1.80;;;;;;;19.21;63.66;100597.28;5030837;28;20225;-84
2023/07/13 01:42:49;;;;;;;4.90;2.03;;;;;;;19.16;63.73;100588.81;5025153;28;20225;-84
2023/07/13 01:45:16;;;;;;;4.50;2.30;;;;;;;19.13;63.74;100594.53;5032415;28;20209;-85
2023/07/13 01:47:42;;;;;;;2.50;1.70;;;;;;;19.08;63.57;100597.66;5026944;28;20211;-84
2023/07/13 01:50:10;;;;;;;1.67;1.57;;;;;;;19.01;63.58;100588.47;5037271;28;20228;-84
2023/07/13 01:52:37;;;;;;;2.60;1.70;;;;;;;18.97;63.31;100600.59;5032799;28;20209;-84
2023/07/13 01:55:04;;;;;;;4.73;2.10;;;;;;;18.93;63.25;100597.34;5032253;28;20201;-85
2023/07/13 01:57:33;;;;;;;3.63;1.53;;;;;;;18.88;63.09;100586.16;5031707;28;20264;-84
2023/07/13 01:59:59;;;;;;;2.27;1.63;;;;;;;18.85;63.22;100596.41;5026533;28;20238;-84
2023/07/13 02:02:26;;;;;;;2.80;1.43;;;;;;;18.83;63.11;100595.69;5031559;28;20743;-83
2023/07/13 02:04:52;;;;;;;3.17;1.97;;;;;;;18.82;63.28;100602.09;5029543;28;20214;-84
2023/07/13 02:07:19;;;;;;;4.97;1.73;;;;;;;18.80;63.24;100601.41;5030140;28;20201;-84
2023/07/13 02:09:45;;;;;;;2.07;1.70;;;;;;;18.79;63.22;100608.66;5026794;28;20225;-85
2023/07/13 02:12:12;;;;;;;2.77;1.60;;;;;;;18.77;63.22;100599.88;5033893;28;20569;-84
2023/07/13 02:14:41;;;;;;;5.37;1.60;;;;;;;18.75;63.18;100603.72;5028863;28;20204;-83
2023/07/13 02:17:08;;;;;;;4.57;1.90;;;;;;;18.70;63.30;100599.59;5031621;28;20288;-84
2023/07/13 02:19:34;;;;;;;1.80;1.53;;;;;;;18.68;63.50;100604.31;5026426;28;20226;-85
2023/07/13 02:22:02;;;;;;;4.33;2.00;;;;;;;18.64;63.35;100602.91;5035257;28;20224;-84
2023/07/13 02:24:29;;;;;;;2.40;1.60;;;;;;;18.64;63.61;100602.91;5033981;28;20211;-84
2023/07/13 02:26:57;;;;;;;3.37;1.80;;;;;;;18.63;63.81;100606.59;5035211;28;20208;-84
2023/07/13 02:29:24;;;;;;;4.50;1.70;;;;;;;18.59;63.93;100610.63;5034082;28;20648;-84
2023/07/13 02:31:55;;;;;;;5.03;1.73;;;;;;;18.58;64.06;100611.59;5034980;28;20208;-84
2023/07/13 02:34:22;;;;;;;3.57;1.80;;;;;;;18.56;64.17;100604.63;5035537;28;20202;-84
2023/07/13 02:36:48;;;;;;;3.00;2.30;;;;;;;18.55;64.25;100606.47;5033301;28;20212;-85
2023/07/13 02:39:18;;;;;;;3.00;1.70;;;;;;;18.50;64.44;100608.75;5028522;28;20225;-84
2023/07/13 02:41:44;;;;;;;3.40;1.70;;;;;;;18.48;64.60;100609.91;5034492;28;20693;-84
2023/07/13 02:44:13;;;;;;;2.73;1.77;;;;;;;18.46;64.48;100601.13;5034194;28;20209;-84
2023/07/13 02:46:40;;;;;;;4.17;1.77;;;;;;;18.41;64.44;100604.28;5034088;28;20236;-83
2023/07/13 02:49:08;;;;;;;3.00;1.80;;;;;;;18.38;64.57;100601.88;5033190;28;20229;-82
2023/07/13 02:51:34;;;;;;;6.37;1.80;;;;;;;18.34;64.60;100605.84;5030696;28;20219;-81
2023/07/13 02:54:01;;;;;;;3.50;1.67;;;;;;;18.33;64.62;100613.09;5035107;28;20205;-84
2023/07/13 02:56:30;;;;;;;2.80;1.60;;;;;;;18.30;64.48;100608.00;5033871;28;20574;-82
2023/07/13 02:58:56;;;;;;;2.30;1.73;;;;;;;18.27;64.56;100616.38;5033927;28;20233;-85
2023/07/13 03:01:23;;;;;;;2.00;1.80;;;;;;;18.26;64.70;100613.84;5028023;28;20205;-83
2023/07/13 03:03:51;;;;;;;3.20;1.60;;;;;;;18.23;64.82;100623.06;5033691;28;20207;-83
2023/07/13 03:06:19;;;;;;;2.33;1.63;;;;;;;18.20;64.87;100626.06;5029217;28;20208;-82
2023/07/13 03:08:45;;;;;;;5.03;2.10;;;;;;;18.17;65.03;100628.19;5033904;28;20228;-83
2023/07/13 03:11:15;;;;;;;4.10;2.07;;;;;;;18.13;65.30;100616.84;5033839;28;20208;-84
2023/07/13 03:13:42;;;;;;;3.57;2.37;;;;;;;18.09;65.35;100618.16;5030012;28;20230;-82
2023/07/13 03:16:09;;;;;;;4.43;2.13;;;;;;;18.08;65.60;100613.75;5032722;28;20203;-82
2023/07/13 03:18:37;;;;;;;3.00;1.93;;;;;;;18.05;65.97;100619.44;5033676;28;20216;-83
2023/07/13 03:21:04;;;;;;;6.00;2.10;;;;;;;18.03;65.94;100611.50;5034190;28;20199;-82
2023/07/13 03:23:32;;;;;;;3.20;2.30;;;;;;;18.01;65.94;100621.56;5034217;28;20227;-83
2023/07/13 03:26:06;;;;;;;2.47;1.67;;;;;;;17.99;66.22;100623.56;5038269;28;20200;-82
2023/07/13 03:28:33;;;;;;;5.53;2.40;;;;;;;17.98;66.27;100619.16;5031263;28;20684;-83
2023/07/13 03:31:04;;;;;;;4.00;2.13;;;;;;;17.97;66.34;100620.16;5027830;28;20211;-83
2023/07/13 03:33:31;;;;;;;9.73;2.70;;;;;;;17.96;66.42;100631.94;5031958;28;20210;-83
2023/07/13 03:35:58;;;;;;;3.60;1.67;;;;;;;17.95;66.48;100619.44;5031150;28;20246;-83
2023/07/13 03:38:26;;;;;;;2.87;2.10;;;;;;;17.94;66.73;100620.44;5032772;28;20231;-82
2023/07/13 03:40:54;;;;;;;3.00;2.17;;;;;;;17.92;66.52;100627.81;5032053;28;20680;-82
2023/07/13 03:43:21;;;;;;;2.77;2.10;;;;;;;17.90;66.58;100621.75;5035219;28;20231;-83
2023/07/13 03:45:47;;;;;;;2.73;1.80;;;;;;;17.88;67.28;100626.44;5032714;28;20206;-82
2023/07/13 03:48:14;;;;;;;2.97;2.00;;;;;;;17.86;66.87;100624.88;5024512;28;20207;-83
2023/07/13 03:50:41;;;;;;;3.47;2.17;;;;;;;17.84;66.88;100627.72;5033513;28;20273;-82
2023/07/13 03:53:07;;;;;;;3.13;2.00;;;;;;;17.82;66.78;100629.69;5029964;28;20205;-83
2023/07/13 03:55:34;;;;;;;4.07;2.00;;;;;;;17.78;66.77;100627.41;5032512;28;20210;-84
2023/07/13 03:58:27;;;;;;;3.47;2.07;;;;;;;17.75;66.84;100627.69;5027928;28;20214;-84
2023/07/13 04:00:57;;;;;;;3.63;1.97;;;;;;;17.73;67.10;100629.72;5026546;28;20229;-82
2023/07/13 04:03:23;;;;;;;4.70;1.93;;;;;;;17.71;67.10;100626.31;5028406;28;20268;-82
2023/07/13 04:05:50;;;;;;;3.37;1.70;;;;;;;17.70;66.86;100630.84;5032947;28;20209;-84
2023/07/13 04:08:17;;;;;;;4.27;2.10;;;;;;;17.68;66.98;100630.13;5032680;28;20221;-84
2023/07/13 04:10:43;;;;;;;3.97;2.10;;;;;;;17.67;67.26;100623.91;5028436;28;20225;-82
2023/07/13 04:13:11;;;;;;;3.97;2.30;;;;;;;17.69;67.30;100629.16;5031681;28;20206;-81
2023/07/13 04:15:39;;;;;;;2.83;2.23;;;;;;;17.69;67.61;100631.84;5028212;28;20208;-83
2023/07/13 04:18:06;;;;;;;5.03;2.20;;;;;;;17.68;67.69;100636.38;5026704;28;20210;-82
2023/07/13 04:20:32;;;;;;;3.90;1.63;;;;;;;17.68;67.99;100627.44;5031097;28;20803;-82
2023/07/13 04:22:59;;;;;;;2.27;2.00;;;;;;;17.66;68.04;100632.97;5030998;28;20238;-84
2023/07/13 04:25:25;;;;;;;3.50;1.97;;;;;;;17.67;68.31;100640.06;5031400;28;20739;-81
2023/07/13 04:27:52;;;;;;;3.93;2.37;;;;;;;17.65;68.44;100639.34;5032640;28;20758;-84
2023/07/13 04:30:20;;;;;;;2.63;1.80;;;;;;;17.64;68.42;100643.03;5029010;28;20252;-84
2023/07/13 04:32:47;;;;;;;3.93;2.13;;;;;;;17.63;68.83;100640.44;5028899;28;20213;-81
2023/07/13 04:35:14;;;;;;;4.47;2.47;;;;;;;17.64;69.27;100644.88;5028614;28;20214;-84
2023/07/13 04:37:41;;;;;;;6.60;2.30;;;;;;;17.60;69.60;100638.03;5031351;28;20247;-84
2023/07/13 04:40:11;;;;;;;5.00;2.60;;;;;;;17.60;69.74;100640.72;5027906;28;20695;-82
2023/07/13 04:42:38;;;;;;;4.27;2.23;;;;;;;17.59;70.16;100645.25;5030100;28;20251;-82
2023/07/13 04:45:05;;;;;;;8.40;2.67;;;;;;;17.59;70.31;100647.97;5030548;28;20217;-82
2023/07/13 04:47:34;;;;;;;4.47;2.47;;;;;;;17.57;70.67;100646.41;5030401;28;20228;-83
2023/07/13 04:50:00;;;;;;;3.40;2.10;;;;;;;17.57;71.01;100646.41;5032469;28;20229;-83
2023/07/13 04:52:27;;;;;;;4.27;2.67;;;;;;;17.57;71.02;100651.78;5026655;28;20206;-82
2023/07/13 04:54:53;;;;;;;5.70;2.53;;;;;;;17.56;71.33;100650.06;5032111;28;20211;-85
2023/07/13 04:57:19;;;;;;;3.30;2.23;;;;;;;17.56;71.36;100652.78;5027725;28;20210;-83
2023/07/13 04:59:46;;;;;;;5.17;2.30;;;;;;;17.59;71.56;100655.19;5024576;28;20237;-83
2023/07/13 05:02:13;;;;;;;3.73;2.07;;;;;;;17.60;71.69;100660.44;5032816;28;20232;-84
2023/07/13 05:04:41;;;;;;;6.30;2.20;;;;;;;17.62;71.86;100658.44;5033632;28;20210;-83
2023/07/13 05:07:08;;;;;;;3.63;2.30;;;;;;;17.65;71.86;100666.28;5033254;28;20606;-85
2023/07/13 05:09:34;;;;;;;4.30;2.10;;;;;;;17.67;71.77;100664.31;5030726;28;20237;-82
2023/07/13 05:12:01;;;;;;;3.90;2.00;;;;;;;17.69;71.26;100670.41;5029367;28;20203;-81
2023/07/13 05:14:27;;;;;;;4.10;1.77;;;;;;;17.73;70.94;100670.97;5030266;28;20215;-82
2023/07/13 05:16:53;;;;;;;3.77;1.80;;;;;;;17.79;70.80;100672.22;5026869;28;20203;-83
2023/07/13 05:19:20;;;;;;;3.07;2.10;;;;;;;17.83;70.35;100679.88;5030292;28;20238;-82
2023/07/13 05:21:48;;;;;;;5.00;2.13;;;;;;;17.89;70.00;100682.03;5029139;28;20208;-84
2023/07/13 05:24:14;;;;;;;3.93;1.93;;;;;;;17.95;69.76;100689.50;5032893;28;20711;-83
2023/07/13 05:26:41;;;;;;;4.83;2.17;;;;;;;18.01;69.44;100688.94;5032090;28;20208;-85
2023/07/13 05:29:07;;;;;;;4.97;2.00;;;;;;;18.11;69.57;100693.44;5033739;28;20267;-85
2023/07/13 05:31:34;;;;;;;4.13;2.20;;;;;;;18.20;69.31;100695.31;5029159;28;20207;-86
2023/07/13 05:34:00;;;;;;;3.60;2.67;;;;;;;18.26;68.54;100697.44;5031816;28;20202;-84
2023/07/13 05:36:27;;;;;;;5.83;2.50;;;;;;;18.30;68.34;100696.13;5032365;28;20208;-85
2023/07/13 05:38:54;;;;;;;6.30;2.00;;;;;;;18.35;67.95;100694.69;5030644;28;20232;-85
2023/07/13 05:41:21;;;;;;;3.77;2.17;;;;;;;18.39;67.76;100700.66;5028164;28;20197;-85
2023/07/13 05:43:47;;;;;;;5.30;2.20;;;;;;;18.44;67.63;100705.63;5031095;28;20229;-84
2023/07/13 05:46:14;;;;;;;3.50;1.70;;;;;;;18.49;67.25;100696.06;5023586;28;20220;-84
2023/07/13 05:48:40;;;;;;;3.77;2.03;;;;;;;18.53;67.05;100700.16;5032693;28;20577;-83
2023/07/13 05:51:07;;;;;;;4.43;1.80;;;;;;;18.59;67.15;100699.63;5033850;28;20208;-84
2023/07/13 05:53:35;;;;;;;4.30;2.30;;;;;;;18.70;67.50;100701.28;5025182;28;20209;-85
2023/07/13 05:56:03;;;;;;;4.37;1.90;;;;;;;18.85;67.14;100705.19;5031130;28;20201;-84
2023/07/13 05:58:29;;;;;;;5.60;1.97;;;;;;;18.98;66.13;100705.72;5030873;28;20600;-86
2023/07/13 06:01:01;;;;;;;4.47;2.00;;;;;;;19.14;65.85;100705.06;5025214;28;20209;-85
2023/07/13 06:03:28;;;;;;;5.23;2.00;;;;;;;19.27;64.93;100710.09;5030626;28;20231;-85
2023/07/13 06:05:54;;;;;;;4.40;2.03;;;;;;;19.38;63.90;100712.56;5030935;28;20206;-83
2023/07/13 06:08:20;;;;;;;2.47;1.70;;;;;;;19.50;63.79;100715.94;5027206;28;20220;-84
2023/07/13 06:10:47;;;;;;;7.43;2.43;;;;;;;19.61;62.88;100719.25;5029023;28;20236;-84
2023/07/13 06:13:19;;;;;;;6.00;2.00;;;;;;;19.71;63.13;100713.78;5030993;28;20205;-86
2023/07/13 06:15:49;;;;;;;3.77;1.90;;;;;;;19.87;63.03;100716.66;5031189;28;20670;-87
2023/07/13 06:18:15;;;;;;;4.40;2.13;;;;;;;20.00;62.14;100716.25;5030356;28;20610;-85
2023/07/13 06:20:42;;;;;;;10.23;2.00;;;;;;;20.15;61.71;100711.97;5031880;28;20601;-85
2023/07/13 06:23:09;;;;;;;6.73;2.10;;;;;;;20.29;60.82;100718.66;5030984;28;20223;-85
2023/07/13 06:25:37;;;;;;;4.73;2.43;;;;;;;20.40;59.66;100721.16;5030832;28;20212;-87
2023/07/13 06:28:04;;;;;;;4.10;2.00;;;;;;;20.46;58.26;100709.69;5030531;28;20204;-83
2023/07/13 06:30:32;;;;;;;6.17;2.00;;;;;;;20.54;57.75;100715.16;5031625;28;20249;-84
2023/07/13 06:32:58;;;;;;;5.87;1.90;;;;;;;20.63;56.81;100719.59;5026894;28;20201;-84
2023/07/13 06:35:25;;;;;;;4.07;1.92;;;;;;;20.67;55.92;100723.69;5020452;28;20205;-84
2023/07/13 06:38:11;;;;;;;3.95;1.63;;;;;;;20.69;56.01;100723.53;5029259;28;20205;-84
2023/07/13 06:40:37;;;;;;;6.82;2.08;;;;;;;20.72;55.41;100721.34;5028609;28;20233;-84
2023/07/13 06:43:04;;;;;;;5.80;2.03;;;;;;;20.73;55.46;100723.03;5024988;28;20226;-85
2023/07/13 06:45:33;;;;;;;3.45;1.55;;;;;;;20.75;54.88;100726.44;5026494;28;20217;-86
2023/07/13 06:48:00;;;;;;;11.15;2.20;;;;;;;20.71;55.29;100725.06;5029978;28;20202;-84
2023/07/13 06:50:26;;;;;;;2.50;1.58;;;;;;;20.70;54.75;100728.78;5030534;28;20720;-85
2023/07/13 06:52:53;;;;;;;3.72;1.48;;;;;;;20.64;54.50;100729.41;5026339;28;20217;-84
2023/07/13 06:55:20;;;;;;;5.33;1.80;;;;;;;20.60;54.72;100736.13;5027209;28;20209;-85
2023/07/13 06:57:46;;;;;;;5.93;1.80;;;;;;;20.55;54.77;100741.22;5021545;28;20696;-84
2023/07/13 07:00:16;;;;;;;6.65;1.83;;;;;;;20.50;55.53;100732.72;5030174;28;20224;-84
2023/07/13 07:02:43;;;;;;;2.90;1.73;;;;;;;20.51;55.55;100736.25;5029337;28;20206;-85
2023/07/13 07:05:10;;;;;;;5.17;1.57;;;;;;;20.48;55.73;100737.44;5025382;28;20594;-85
2023/07/13 07:07:36;;;;;;;4.83;1.53;;;;;;;20.48;55.85;100734.72;5029094;28;20207;-84
2023/07/13 07:10:04;;;;;;;3.80;1.50;;;;;;;20.47;55.77;100733.03;5032002;28;20236;-83
2023/07/13 07:12:30;;;;;;;2.30;1.40;;;;;;;20.47;56.04;100735.72;5029265;28;20553;-83
2023/07/13 07:14:57;;;;;;;2.87;1.80;;;;;;;20.43;55.82;100737.88;5028165;28;20200;-84
2023/07/13 07:17:23;;;;;;;4.17;1.57;;;;;;;20.42;55.74;100736.19;5021460;28;20204;-84
2023/07/13 07:19:51;;;;;;;3.17;1.43;;;;;;;20.44;56.12;100736.03;5026245;28;20241;-83
2023/07/13 07:22:17;;;;;;;2.73;1.40;;;;;;;20.45;56.42;100726.91;5023304;28;20231;-83
2023/07/13 07:24:44;;;;;;;3.67;1.80;;;;;;;20.48;56.15;100737.44;5024866;28;20230;-83
2023/07/13 07:27:10;;;;;;;3.77;1.30;;;;;;;20.48;55.48;100733.88;5031083;28;20204;-84
2023/07/13 07:29:37;;;;;;;2.93;1.63;;;;;;;20.49;55.38;100731.00;5023113;28;20232;-83
2023/07/13 07:32:04;;;;;;;6.63;1.40;;;;;;;20.48;54.78;100734.72;5026391;28;20214;-84
2023/07/13 07:34:31;;;;;;;2.17;1.30;;;;;;;20.48;54.87;100740.13;5030792;28;20208;-84
2023/07/13 07:37:00;;;;;;;3.13;1.20;;;;;;;20.48;54.76;100734.72;5029342;28;20211;-86
2023/07/13 07:39:27;;;;;;;4.40;1.60;;;;;;;20.49;54.37;100738.28;5027620;28;20227;-84
2023/07/13 07:41:53;;;;;;;5.13;1.60;;;;;;;20.50;54.71;100735.41;5028389;28;20215;-84
2023/07/13 07:44:20;;;;;;;3.77;1.27;;;;;;;20.56;54.97;100733.94;5023347;28;20239;-83
2023/07/13 07:46:46;;;;;;;3.80;1.23;;;;;;;20.61;54.48;100737.84;5026160;28;20734;-84
2023/07/13 07:49:13;;;;;;;3.23;1.50;;;;;;;20.66;54.26;100737.38;5026557;28;20256;-83
2023/07/13 07:51:40;;;;;;;3.10;1.20;;;;;;;20.72;54.23;100742.16;5025388;28;20208;-84
2023/07/13 07:54:08;;;;;;;3.37;1.30;;;;;;;20.78;53.92;100746.94;5025919;28;20585;-85
2023/07/13 07:56:34;;;;;;;3.13;1.13;;;;;;;20.84;53.76;100750.84;5028534;28;20211;-84
2023/07/13 07:59:01;;;;;;;2.67;0.90;;;;;;;20.87;53.35;100745.09;5026365;28;20223;-84
2023/07/13 08:01:27;;;;;;;4.13;1.23;;;;;;;20.88;53.43;100744.09;5022492;28;20205;-84
2023/07/13 08:03:54;;;;;;;3.97;1.33;;;;;;;20.91;53.50;100738.38;5027901;28;20996;-85
2023/07/13 08:06:21;;;;;;;3.30;1.15;;;;;;;20.98;53.74;100744.81;5020668;28;20816;-85
2023/07/13 08:08:48;;;;;;;4.80;1.23;;;;;;;21.07;53.37;100735.72;5025142;28;20647;-85
2023/07/13 08:11:18;;;;;;;5.78;1.67;;;;;;;21.11;52.70;100745.22;5030646;28;20208;-84
2023/07/13 08:13:44;;;;;;;3.03;1.13;;;;;;;21.12;52.68;100744.22;5023607;28;20204;-83
2023/07/13 08:16:11;;;;;;;3.37;1.60;;;;;;;21.15;52.93;100741.16;5021717;28;20216;-85
2023/07/13 08:18:38;;;;;;;3.88;1.17;;;;;;;21.21;53.06;100742.41;5026095;28;20778;-84
2023/07/13 08:21:08;;;;;;;3.13;1.20;;;;;;;21.27;53.35;100739.91;5025998;28;20205;-84
2023/07/13 08:23:35;;;;;;;2.75;1.20;;;;;;;21.36;53.38;100736.19;5016981;28;20229;-84
2023/07/13 08:26:02;;;;;;;4.28;1.40;;;;;;;21.45;52.23;100745.22;5024515;28;20213;-84
2023/07/13 08:28:30;;;;;;;4.33;1.10;;;;;;;21.48;52.10;100740.31;5022362;28;20206;-85
2023/07/13 08:31:01;;;;;;;4.57;1.38;;;;;;;21.55;51.86;100755.91;5029223;28;20217;-84
2023/07/13 08:33:27;;;;;;;3.13;1.20;;;;;;;21.63;51.70;100751.34;5021441;28;20199;-84
2023/07/13 08:35:54;;;;;;;3.35;1.00;;;;;;;21.69;51.05;100749.81;5021822;28;20210;-82
2023/07/13 08:38:20;;;;;;;2.42;1.40;;;;;;;21.71;50.71;100750.50;5024902;28;20701;-83
2023/07/13 08:40:52;;;;;;;3.33;1.45;;;;;;;21.77;51.16;100745.28;5024664;28;20229;-84
2023/07/13 08:43:23;;;;;;;2.45;1.17;;;;;;;21.85;51.30;100738.19;5026207;28;20205;-85
2023/07/13 08:45:58;;;;;;;4.10;1.10;;;;;;;21.96;51.42;100746.81;5026440;28;20213;-84
2023/07/13 08:48:28;;;;;;;2.70;1.10;;;;;;;22.07;51.10;100735.66;5023628;28;20210;-83
2023/07/13 08:50:59;;;;;;;5.40;1.33;;;;;;;22.16;50.90;100744.66;5025527;28;20202;-84
2023/07/13 08:53:32;;;;;;;2.65;1.25;;;;;;;22.26;50.59;100752.63;5026556;28;20209;-82
2023/07/13 08:56:00;;;;;;;3.75;1.00;;;;;;;22.33;50.57;100745.50;5018241;28;20198;-84
2023/07/13 08:58:29;;;;;;;2.58;1.23;;;;;;;22.40;49.96;100747.34;5026634;28;20206;-84
2023/07/13 09:01:05;;;;;;;1.98;1.13;;;;;;;22.54;50.31;100753.97;5029632;28;20212;-84
2023/07/13 09:03:57;;;;;;;3.50;1.50;;;;;;;22.73;50.20;100748.16;5028153;28;20209;-85
2023/07/13 09:06:31;;;;;;;3.15;1.13;;;;;;;22.92;49.63;100756.97;5027846;28;20655;-82
2023/07/13 09:09:03;;;;;;;4.35;1.48;;;;;;;23.03;48.75;100759.31;5020815;28;20911;-82
2023/07/13 09:11:42;;;;;;;3.17;1.60;;;;;;;23.12;48.60;100753.66;5028445;28;20210;-83
2023/07/13 09:14:27;;;;;;;4.10;1.50;;;;;;;23.27;48.95;100747.50;5024368;28;20194;-82
2023/07/13 09:16:56;;;;;;;3.20;1.60;;;;;;;23.40;48.17;100755.91;5029528;28;20618;-82
2023/07/13 09:19:29;;;;;;;2.95;1.52;;;;;;;23.52;47.72;100752.66;5032455;28;20218;-84
2023/07/13 09:21:58;;;;;;;2.75;1.20;;;;;;;23.58;47.50;100759.25;5029417;28;20556;-83
2023/07/13 09:24:36;;;;;;;2.15;1.30;;;;;;;23.61;47.07;100749.91;5025530;28;20252;-83
2023/07/13 09:27:10;;;;;;;4.72;1.23;;;;;;;23.56;47.06;100755.84;5024141;28;20202;-83
2023/07/13 09:29:37;;;;;;;4.20;1.48;;;;;;;23.53;47.16;100753.50;5024513;28;20299;-84
2023/07/13 09:32:13;;;;;;;3.30;1.40;;;;;;;23.50;46.87;100761.97;5029052;28;20202;-82
2023/07/13 09:34:39;;;;;;;3.25;1.42;;;;;;;23.41;46.85;100761.19;5026998;28;20205;-84
2023/07/13 09:37:06;;;;;;;2.05;1.52;;;;;;;23.37;47.12;100757.13;5023946;28;20213;-83
2023/07/13 09:39:37;;;;;;;4.40;1.42;;;;;;;23.38;47.41;100758.81;5026819;28;20572;-81
2023/07/13 09:42:13;;;;;;;4.30;1.67;;;;;;;23.41;47.39;100754.91;5030078;28;20803;-83
2023/07/13 09:44:52;;;;;;;2.50;1.70;;;;;;;23.39;47.13;100760.50;5028013;28;20213;-83
2023/07/13 09:47:23;;;;;;;1.90;1.50;;;;;;;23.39;47.16;100760.50;5029692;28;20661;-83
2023/07/13 09:49:55;;;;;;;4.22;1.75;;;;;;;23.41;47.22;100754.91;5027241;28;20235;-85
2023/07/13 09:52:22;;;;;;;3.10;1.30;;;;;;;23.48;47.55;100745.84;5029749;28;20640;-82
2023/07/13 09:54:51;;;;;;;2.28;1.40;;;;;;;23.56;47.68;100757.72;5028993;28;20667;-83
2023/07/13 09:57:23;;;;;;;3.00;1.60;;;;;;;23.61;47.18;100755.34;5022237;28;20605;-82
2023/07/13 09:59:51;;;;;;;4.13;1.55;;;;;;;23.69;47.14;100744.38;5017278;28;20222;-82
2023/07/13 10:02:29;;;;;;;3.53;1.50;;;;;;;23.82;47.57;100758.25;5028618;28;20544;-83
2023/07/13 10:05:02;;;;;;;1.35;1.10;;;;;;;23.86;45.80;100754.13;5020838;28;20701;-82
2023/07/13 10:07:29;;;;;;;3.33;1.30;;;;;;;23.87;45.49;100756.66;5028509;28;20748;-83
2023/07/13 10:09:57;;;;;;;2.25;1.25;;;;;;;23.94;45.77;100748.66;5024664;28;20225;-82
2023/07/13 10:12:25;;;;;;;3.28;1.40;;;;;;;24.01;45.30;100748.75;5022265;28;20205;-82
2023/07/13 10:14:54;;;;;;;2.95;1.20;;;;;;;24.10;44.60;100751.22;5022487;28;20216;-83
2023/07/13 10:17:31;;;;;;;2.55;1.40;;;;;;;24.17;44.71;100743.19;5022318;28;20210;-83
2023/07/13 10:20:04;;;;;;;1.92;1.40;;;;;;;24.25;44.79;100750.47;5017698;28;20226;-80
2023/07/13 10:22:40;;;;;;;4.47;1.60;;;;;;;24.33;44.55;100748.53;5019071;28;20221;-82
2023/07/13 10:25:16;;;;;;;3.58;1.40;;;;;;;24.45;44.56;100757.94;5025500;28;20222;-82
2023/07/13 10:27:44;;;;;;;2.70;1.27;;;;;;;24.57;44.41;100747.44;5024277;28;20210;-82
2023/07/13 10:30:16;;;;;;;5.40;1.48;;;;;;;24.65;44.21;100752.81;5022928;28;20309;-81
2023/07/13 10:32:46;;;;;;;4.25;1.27;;;;;;;24.71;43.58;100753.94;5026450;28;20213;-82
2023/07/13 10:35:14;;;;;;;3.85;1.63;;;;;;;24.76;43.31;100762.38;5029415;28;20195;-82
2023/07/13 10:37:49;;;;;;;4.13;1.65;;;;;;;24.79;43.13;100745.66;5030881;28;20205;-82
2023/07/13 10:40:22;;;;;;;1.80;1.15;;;;;;;24.80;43.45;100759.09;5030614;28;20253;-83
2023/07/13 10:42:52;;;;;;;2.67;1.30;;;;;;;24.84;43.27;100768.59;5028167;28;20214;-84
2023/07/13 10:45:21;;;;;;;3.97;1.75;;;;;;;24.90;43.31;100751.50;5025614;28;20901;-82
2023/07/13 10:47:52;;;;;;;3.92;1.63;;;;;;;25.00;43.39;100751.25;5030622;28;20202;-83
2023/07/13 10:50:24;;;;;;;2.97;1.55;;;;;;;25.06;42.63;100752.41;5024210;28;20353;-82
2023/07/13 10:52:54;;;;;;;2.13;1.17;;;;;;;25.00;42.54;100764.88;5025263;28;20213;-83
2023/07/13 10:55:36;;;;;;;2.50;1.42;;;;;;;24.96;42.38;100760.00;5020951;28;20210;-82
2023/07/13 10:58:11;;;;;;;2.55;1.10;;;;;;;25.00;41.83;100758.59;5031608;28;20332;-82
2023/07/13 11:00:47;;;;;;;2.15;1.15;;;;;;;25.06;42.32;100746.94;5029239;28;20579;-82
2023/07/13 11:03:18;;;;;;;2.38;1.38;;;;;;;25.13;42.00;100761.47;5030765;28;20206;-85
2023/07/13 11:05:44;;;;;;;2.00;1.30;;;;;;;25.18;41.91;100759.03;5031534;28;20241;-81
2023/07/13 11:08:22;;;;;;;3.72;1.48;;;;;;;25.21;41.62;100761.41;5030985;28;20208;-83
2023/07/13 11:10:52;;;;;;;1.58;1.27;;;;;;;25.22;42.06;100763.09;5029738;28;20602;-82
2023/07/13 11:13:57;;;;;;;4.90;1.92;;;;;;;25.32;42.33;100760.91;5026066;28;20234;-82
2023/07/13 11:16:42;;;;;;;2.72;1.20;;;;;;;25.34;40.26;100764.28;5019786;28;20210;-82
2023/07/13 11:19:39;;;;;;;3.08;1.13;;;;;;;25.42;40.89;100760.63;5023981;28;20230;-82
2023/07/13 11:22:21;;;;;;;3.17;1.20;;;;;;;25.46;40.91;100754.56;5022461;28;20198;-82
2023/07/13 11:24:56;;;;;;;2.20;1.10;;;;;;;25.45;40.66;100755.59;5027408;28;20238;-85
2023/07/13 11:27:36;;;;;;;1.33;1.20;;;;;;;25.42;40.02;100761.47;5031194;28;20715;-83
2023/07/13 11:30:35;;;;;;;3.10;1.05;;;;;;;25.40;40.20;100763.53;5025487;28;20252;-81
2023/07/13 11:33:13;;;;;;;3.28;1.30;;;;;;;25.36;40.73;100762.22;4994168;28;20218;-81